Time;durP1;ratioP1;P1;durP2;ratioP2;P2;SDS_P1;SDS_P2;PMS_P1;PMS_P2;Temp;Humidity;BMP_temperature;BMP_pressure;BME280_temperature;BME280_humidity;BME280_pressure;Samples;Min_cycle;Max_cycle;Signal;HPM_P1;HPM_P2
2023/12/18 00:01:57;;;;;;;11.90;5.30;;;;;;;5.44;92.95;100893.46;219302;1259;139531;-66
2023/12/18 00:07:01;;;;;;;10.20;5.50;;;;;;;5.45;92.89;100886.98;219646;1261;141648;-67
2023/12/18 00:12:07;;;;;;;8.70;5.20;;;;;;;5.46;92.81;100874.55;217619;1260;140929;-67
2023/12/18 00:17:12;;;;;;;7.70;5.50;;;;;;;5.47;92.64;100867.36;219879;1260;139665;-67
2023/12/18 00:22:17;;;;;;;7.50;5.50;;;;;;;5.44;92.34;100865.36;219126;1259;140595;-69
2023/12/18 00:27:22;;;;;;;6.60;4.60;;;;;;;5.45;92.60;100860.07;217567;1262;139538;-68
2023/12/18 00:32:26;;;;;;;10.10;6.40;;;;;;;5.43;92.45;100862.83;217955;1261;139827;-67
2023/12/18 00:37:30;;;;;;;6.90;5.00;;;;;;;5.42;92.07;100862.72;218344;1262;141517;-68
2023/12/18 00:42:34;;;;;;;6.70;4.70;;;;;;;5.42;92.24;100865.77;218432;1258;139698;-67
2023/12/18 00:47:39;;;;;;;9.50;4.70;;;;;;;5.40;91.87;100865.11;218362;1261;142933;-68
2023/12/18 00:52:45;;;;;;;5.80;4.40;;;;;;;5.38;92.23;100862.28;217391;1261;141401;-67
2023/12/18 00:57:51;;;;;;;9.00;5.00;;;;;;;5.38;92.14;100868.86;217272;1261;140504;-67
2023/12/18 01:02:58;;;;;;;6.90;3.90;;;;;;;5.36;92.07;100866.61;218258;1261;138753;-67
2023/12/18 01:08:04;;;;;;;4.90;3.90;;;;;;;5.33;91.94;100856.95;217748;1260;139014;-67
2023/12/18 01:13:08;;;;;;;9.50;5.70;;;;;;;5.32;91.74;100853.28;218739;1258;139866;-67
2023/12/18 01:18:12;;;;;;;6.00;4.30;;;;;;;5.30;91.75;100851.58;217495;1262;141028;-67
2023/12/18 01:23:17;;;;;;;7.00;3.90;;;;;;;5.29;91.79;100839.70;218069;1260;139825;-67
2023/12/18 01:28:25;;;;;;;7.40;3.90;;;;;;;5.29;91.92;100840.14;217817;1262;140732;-67
2023/12/18 01:33:30;;;;;;;5.40;4.60;;;;;;;5.29;91.59;100840.14;217518;1259;141499;-67
2023/12/18 01:38:34;;;;;;;7.50;3.90;;;;;;;5.28;91.79;100841.83;217997;1258;139451;-67
2023/12/18 01:43:39;;;;;;;6.40;4.80;;;;;;;5.26;91.52;100844.69;217795;1261;140144;-66
2023/12/18 01:48:45;;;;;;;6.80;4.40;;;;;;;5.25;91.37;100846.34;218236;1259;140830;-67
2023/12/18 01:53:52;;;;;;;8.90;3.70;;;;;;;5.24;91.30;100842.61;219019;1258;138995;-67
2023/12/18 01:58:59;;;;;;;4.70;3.80;;;;;;;5.27;91.91;100836.29;217455;1262;140492;-65
2023/12/18 02:04:04;;;;;;;4.80;3.90;;;;;;;5.32;91.93;100828.86;219167;1257;140517;-69
2023/12/18 02:09:09;;;;;;;9.80;4.10;;;;;;;5.39;91.74;100824.90;220166;1261;140786;-67
2023/12/18 02:14:14;;;;;;;4.50;3.50;;;;;;;5.48;91.90;100818.24;220044;1257;141296;-67
2023/12/18 02:19:27;;;;;;;8.90;4.00;;;;;;;5.54;92.10;100813.21;218653;1261;140974;-67
2023/12/18 02:24:32;;;;;;;8.10;4.70;;;;;;;5.61;91.51;100807.88;220018;1257;140218;-68
2023/12/18 02:29:36;;;;;;;4.70;3.30;;;;;;;5.65;91.73;100803.29;218685;1257;139495;-67
2023/12/18 02:34:41;;;;;;;4.70;3.90;;;;;;;5.70;91.36;100804.33;219571;1257;140105;-67
2023/12/18 02:39:46;;;;;;;10.50;4.30;;;;;;;5.75;91.66;100798.87;218735;1262;141628;-66
2023/12/18 02:44:51;;;;;;;4.50;3.70;;;;;;;5.76;91.63;100795.55;218721;1261;139402;-66
2023/12/18 02:49:55;;;;;;;6.00;3.70;;;;;;;5.73;91.57;100796.53;218059;1261;140599;-66
2023/12/18 02:55:00;;;;;;;5.10;3.60;;;;;;;5.73;91.29;100809.46;218160;1257;139454;-67
2023/12/18 03:00:06;;;;;;;6.80;4.20;;;;;;;5.74;91.44;100804.55;218129;1258;139516;-66
2023/12/18 03:05:11;;;;;;;6.90;3.90;;;;;;;5.78;91.70;100805.36;218716;1257;140063;-67
2023/12/18 03:10:16;;;;;;;6.40;4.00;;;;;;;5.83;91.92;100803.59;218074;1258;141302;-67
2023/12/18 03:15:20;;;;;;;8.50;5.00;;;;;;;5.85;91.99;100802.44;218478;1257;139545;-68
2023/12/18 03:20:24;;;;;;;8.70;4.70;;;;;;;5.87;91.68;100806.42;217827;1257;140141;-68
2023/12/18 03:30:12;;;;;;;6.70;5.10;;;;;;;5.92;91.98;100800.89;214728;1297;637250;-68
2023/12/18 03:35:16;;;;;;;9.00;6.10;;;;;;;5.93;91.77;100803.34;216499;1267;139050;-67
2023/12/18 03:40:20;;;;;;;10.90;5.70;;;;;;;5.94;92.13;100794.56;217019;1272;225085;-68
2023/12/18 03:45:24;;;;;;;10.70;6.30;;;;;;;5.95;91.90;100795.65;217352;1266;140189;-70
2023/12/18 03:50:29;;;;;;;7.00;5.20;;;;;;;5.97;91.90;100801.13;217875;1269;139878;-70
2023/12/18 03:55:35;;;;;;;6.70;5.90;;;;;;;5.98;91.72;100797.05;218235;1267;140201;-68
2023/12/18 04:00:39;;;;;;;10.40;6.40;;;;;;;5.99;91.68;100798.06;216972;1266;138657;-68
2023/12/18 04:05:43;;;;;;;5.90;5.30;;;;;;;6.00;91.58;100796.91;219484;1264;139415;-68
2023/12/18 04:10:47;;;;;;;6.40;5.70;;;;;;;5.99;91.57;100792.99;219472;1268;139118;-67
2023/12/18 04:15:52;;;;;;;7.30;6.20;;;;;;;6.02;91.55;100806.97;220459;1256;139844;-68
2023/12/18 04:20:58;;;;;;;6.70;5.70;;;;;;;6.05;91.45;100816.02;220493;1262;139135;-68
2023/12/18 04:26:02;;;;;;;7.40;6.40;;;;;;;6.09;91.33;100811.55;219766;1261;141750;-69
2023/12/18 04:31:07;;;;;;;7.00;5.70;;;;;;;6.11;91.15;100814.11;219314;1261;138882;-68
2023/12/18 04:36:12;;;;;;;14.10;6.50;;;;;;;6.13;91.49;100823.56;217624;1260;141588;-69
2023/12/18 04:41:20;;;;;;;6.60;5.90;;;;;;;6.13;91.25;100820.67;219511;1257;139727;-70
2023/12/18 04:46:25;;;;;;;9.00;7.60;;;;;;;6.14;91.27;100828.72;218308;1257;139533;-69
2023/12/18 04:51:29;;;;;;;8.80;6.50;;;;;;;6.15;91.27;100823.48;218591;1257;139164;-69
2023/12/18 04:56:33;;;;;;;8.10;7.20;;;;;;;6.14;91.30;100829.45;218641;1257;139574;-68
2023/12/18 05:01:38;;;;;;;8.50;6.90;;;;;;;6.13;91.21;100836.20;218461;1254;138932;-67
2023/12/18 05:06:44;;;;;;;8.30;6.00;;;;;;;6.12;91.17;100828.78;218599;1254;139560;-68
2023/12/18 05:11:49;;;;;;;7.40;5.90;;;;;;;6.09;91.12;100819.92;218579;1254;140197;-69
2023/12/18 05:16:53;;;;;;;8.80;6.60;;;;;;;6.09;91.38;100812.58;218356;1257;139693;-71
2023/12/18 05:21:57;;;;;;;8.90;6.40;;;;;;;6.08;91.31;100811.91;219036;1257;139817;-72
2023/12/18 05:27:01;;;;;;;5.80;4.20;;;;;;;6.08;91.42;100808.09;218504;1254;138682;-73
2023/12/18 05:32:07;;;;;;;7.60;6.80;;;;;;;6.09;91.36;100809.92;218264;1257;140709;-76
2023/12/18 05:37:11;;;;;;;7.50;5.90;;;;;;;6.07;91.06;100815.20;219301;1254;138879;-75
2023/12/18 05:42:17;;;;;;;9.60;8.00;;;;;;;6.10;91.47;100821.92;217672;1255;138966;-70
2023/12/18 05:47:21;;;;;;;5.30;4.50;;;;;;;6.13;91.58;100817.87;218016;1255;139496;-72
2023/12/18 05:52:26;;;;;;;9.10;7.10;;;;;;;6.13;90.99;100823.86;219843;1254;139868;-74
2023/12/18 05:57:31;;;;;;;7.70;6.30;;;;;;;6.13;91.53;100828.70;218278;1254;139535;-72
2023/12/18 06:02:36;;;;;;;11.40;7.30;;;;;;;6.13;91.47;100828.70;220145;1254;140279;-72
2023/12/18 06:07:43;;;;;;;7.20;5.80;;;;;;;6.12;91.45;100824.02;218624;1254;140405;-73
2023/12/18 06:12:51;;;;;;;8.30;6.20;;;;;;;6.13;91.38;100820.89;218155;1254;140012;-74
2023/12/18 06:17:57;;;;;;;6.80;6.20;;;;;;;6.12;91.42;100819.98;220658;1254;139970;-75
2023/12/18 06:23:01;;;;;;;6.90;6.20;;;;;;;6.08;91.38;100834.52;219248;1255;141532;-74
2023/12/18 06:28:06;;;;;;;8.10;6.90;;;;;;;6.08;91.07;100841.20;219196;1254;140434;-69
2023/12/18 06:33:10;;;;;;;7.10;6.50;;;;;;;6.11;91.38;100839.45;218960;1254;139162;-71
2023/12/18 06:38:14;;;;;;;6.80;5.70;;;;;;;6.13;91.32;100840.45;219827;1254;139595;-73
2023/12/18 06:43:17;;;;;;;6.90;6.30;;;;;;;6.15;91.48;100843.11;218726;1254;139079;-69
2023/12/18 06:48:23;;;;;;;9.60;7.40;;;;;;;6.15;91.71;100843.56;219465;1254;139947;-72
2023/12/18 06:53:28;;;;;;;7.50;6.40;;;;;;;6.15;91.67;100839.89;218020;1254;139860;-69
2023/12/18 06:58:32;;;;;;;9.50;6.90;;;;;;;6.15;91.45;100838.80;218774;1254;139608;-71
2023/12/18 07:03:38;;;;;;;8.40;5.60;;;;;;;6.16;91.38;100840.61;218536;1254;139437;-71
2023/12/18 07:08:43;;;;;;;11.00;6.90;;;;;;;6.13;91.25;100836.53;218237;1254;138923;-70
2023/12/18 07:13:47;;;;;;;8.50;7.00;;;;;;;6.13;91.77;100837.96;218665;1255;141316;-70
2023/12/18 07:18:51;;;;;;;15.90;8.80;;;;;;;6.12;91.22;100832.48;218086;1257;139774;-69
2023/12/18 07:23:55;;;;;;;7.90;7.00;;;;;;;6.12;91.46;100838.27;218788;1254;139836;-71
2023/12/18 07:28:58;;;;;;;8.80;6.80;;;;;;;6.12;91.39;100840.95;218686;1254;140018;-71
2023/12/18 07:34:03;;;;;;;9.10;7.40;;;;;;;6.16;91.44;100843.33;218233;1257;141996;-69
2023/12/18 07:39:08;;;;;;;7.00;5.60;;;;;;;6.15;91.37;100857.86;219299;1254;139745;-70
2023/12/18 07:44:14;;;;;;;9.80;7.50;;;;;;;6.15;91.33;100863.65;218549;1259;140448;-70
2023/12/18 07:49:22;;;;;;;16.10;8.00;;;;;;;6.14;91.22;100864.89;219368;1253;139490;-70
2023/12/18 07:54:27;;;;;;;10.70;7.20;;;;;;;6.14;91.28;100872.59;220631;1254;140285;-71
2023/12/18 07:59:32;;;;;;;10.40;7.00;;;;;;;6.17;91.29;100887.96;219402;1254;140621;-69
2023/12/18 08:04:38;;;;;;;10.60;6.50;;;;;;;6.23;90.94;100884.71;220578;1254;140203;-69
2023/12/18 08:09:44;;;;;;;12.10;8.90;;;;;;;6.26;90.88;100871.09;219724;1254;139785;-69
2023/12/18 08:14:49;;;;;;;8.40;6.50;;;;;;;6.26;91.09;100872.55;220789;1254;139935;-70
2023/12/18 08:19:53;;;;;;;8.50;5.60;;;;;;;6.26;90.80;100877.11;220213;1254;141055;-69
2023/12/18 08:24:57;;;;;;;9.20;8.00;;;;;;;6.26;90.57;100889.09;219017;1254;140356;-69
2023/12/18 08:30:05;;;;;;;15.20;9.00;;;;;;;6.27;90.61;100880.88;218339;1254;139970;-70
2023/12/18 08:35:11;;;;;;;10.70;8.00;;;;;;;6.27;90.86;100887.36;218753;1254;140358;-68
2023/12/18 08:40:16;;;;;;;10.60;6.90;;;;;;;6.29;90.61;100886.13;218929;1255;139430;-68
2023/12/18 08:45:19;;;;;;;9.80;8.10;;;;;;;6.30;90.49;100881.38;219577;1254;139499;-70
2023/12/18 08:50:24;;;;;;;11.30;8.70;;;;;;;6.30;90.79;100870.46;218401;1255;139003;-68
2023/12/18 08:55:29;;;;;;;12.30;9.10;;;;;;;6.30;90.58;100859.67;218328;1254;139642;-69
2023/12/18 09:00:36;;;;;;;9.80;7.20;;;;;;;6.31;90.81;100877.77;218188;1254;139616;-68
2023/12/18 09:05:42;;;;;;;11.70;8.50;;;;;;;6.28;90.64;100882.13;219025;1254;140409;-70
2023/12/18 09:10:47;;;;;;;9.80;8.00;;;;;;;6.27;90.62;100874.33;218185;1254;139463;-70
2023/12/18 09:15:51;;;;;;;13.10;9.40;;;;;;;6.28;90.36;100866.04;218484;1257;141462;-72
2023/12/18 09:20:56;;;;;;;10.50;8.60;;;;;;;6.29;90.86;100864.90;218516;1254;140701;-71
2023/12/18 09:26:02;;;;;;;10.30;9.10;;;;;;;6.28;90.51;100867.27;218868;1254;139743;-72
2023/12/18 09:31:07;;;;;;;13.70;10.50;;;;;;;6.29;90.76;100863.28;218150;1254;139379;-70
2023/12/18 09:36:11;;;;;;;16.50;11.40;;;;;;;6.32;90.63;100869.48;218690;1254;140547;-69
2023/12/18 09:41:23;;;;;;;14.90;10.40;;;;;;;6.36;90.55;100864.09;218747;1254;139483;-70
2023/12/18 09:46:27;;;;;;;13.30;9.90;;;;;;;6.41;90.65;100859.20;218609;1258;139998;-71
2023/12/18 09:51:36;;;;;;;11.10;8.10;;;;;;;6.44;90.42;100861.30;219219;1253;139486;-69
2023/12/18 09:56:41;;;;;;;10.60;9.10;;;;;;;6.41;90.25;100853.95;219057;1254;246239;-70
2023/12/18 10:01:47;;;;;;;9.90;7.10;;;;;;;6.39;90.47;100851.72;218535;1254;140507;-68
2023/12/18 10:06:54;;;;;;;11.10;9.50;;;;;;;6.34;90.12;100839.21;218945;1254;140340;-68
2023/12/18 10:11:57;;;;;;;12.90;9.10;;;;;;;6.32;90.47;100835.26;220676;1254;140308;-68
2023/12/18 10:17:01;;;;;;;13.70;7.90;;;;;;;6.34;90.36;100829.74;220656;1254;140026;-68
2023/12/18 10:22:05;;;;;;;9.50;8.60;;;;;;;6.34;90.45;100833.74;220721;1254;139795;-69
2023/12/18 10:27:10;;;;;;;14.00;9.10;;;;;;;6.37;90.41;100832.53;219663;1254;138971;-68
2023/12/18 10:32:15;;;;;;;12.50;9.90;;;;;;;6.37;90.20;100839.95;219349;1256;139231;-70
2023/12/18 10:37:23;;;;;;;15.80;10.60;;;;;;;6.38;90.28;100828.88;219448;1254;139149;-69
2023/12/18 10:42:35;;;;;;;13.00;9.30;;;;;;;6.39;89.99;100824.30;219782;1254;141074;-68
2023/12/18 10:47:40;;;;;;;10.80;7.40;;;;;;;6.40;90.39;100819.95;218286;1258;139186;-72
2023/12/18 10:52:46;;;;;;;16.50;11.30;;;;;;;6.40;90.19;100817.83;217970;1257;139505;-73
2023/12/18 10:57:53;;;;;;;11.90;9.90;;;;;;;6.40;90.51;100809.23;218403;1255;141197;-71
2023/12/18 11:02:58;;;;;;;16.60;9.70;;;;;;;6.38;90.16;100797.76;218649;1254;139187;-71
2023/12/18 11:08:05;;;;;;;14.40;9.30;;;;;;;6.40;90.62;100804.59;218719;1254;139352;-70
2023/12/18 11:13:26;;;;;;;15.00;9.80;;;;;;;6.41;90.38;100817.95;217982;1254;139397;-70
2023/12/18 11:18:52;;;;;;;14.10;10.20;;;;;;;6.42;90.28;100824.16;218035;1253;139949;-68
2023/12/18 11:23:58;;;;;;;13.00;8.30;;;;;;;6.37;90.45;100829.84;218384;1254;140217;-72
2023/12/18 11:29:34;;;;;;;12.70;9.20;;;;;;;6.32;90.37;100841.05;217981;1254;140067;-70
2023/12/18 11:34:41;;;;;;;;;;;;;;;6.24;90.57;100837.58;218828;1254;139381;-70
2023/12/18 11:39:47;;;;;;;13.70;12.20;;;;;;;6.18;90.36;100832.45;218875;1255;125726;-70
2023/12/18 11:45:03;;;;;;;13.10;11.00;;;;;;;6.21;90.81;100828.56;219150;1254;140054;-70
2023/12/18 11:50:07;;;;;;;14.10;10.40;;;;;;;6.25;91.13;100838.86;218873;1253;139935;-69
2023/12/18 11:55:13;;;;;;;17.20;10.10;;;;;;;6.28;90.95;100832.47;217849;1254;140391;-69
2023/12/18 12:00:18;;;;;;;16.10;10.40;;;;;;;6.32;90.97;100822.84;219416;1254;139912;-70
2023/12/18 12:05:23;;;;;;;15.10;12.00;;;;;;;6.28;90.47;100827.41;217842;1254;140624;-68
2023/12/18 12:10:27;;;;;;;12.50;9.70;;;;;;;6.24;90.90;100830.13;220666;1253;140750;-70
2023/12/18 12:15:31;;;;;;;16.80;10.40;;;;;;;6.32;90.82;100840.15;220111;1253;140490;-70
2023/12/18 12:20:36;;;;;;;9.20;8.00;;;;;;;6.38;90.73;100843.02;220639;1254;139990;-70
2023/12/18 12:25:41;;;;;;;14.40;11.50;;;;;;;6.45;90.60;100839.59;220234;1254;139163;-72
2023/12/18 12:30:48;;;;;;;18.10;11.70;;;;;;;6.51;90.27;100844.98;219951;1256;140451;-70
2023/12/18 12:35:53;;;;;;;15.30;12.10;;;;;;;6.57;90.53;100845.86;217810;1257;139657;-70
2023/12/18 12:40:58;;;;;;;18.00;8.90;;;;;;;6.56;90.11;100844.39;219903;1254;140658;-71
2023/12/18 12:46:02;;;;;;;16.70;13.00;;;;;;;6.55;90.25;100844.23;218513;1254;139967;-70
2023/12/18 12:51:07;;;;;;;17.60;13.30;;;;;;;6.56;90.42;100839.28;219819;1255;140814;-70
2023/12/18 12:56:12;;;;;;;14.70;11.90;;;;;;;6.58;90.53;100839.92;218726;1254;140327;-71
2023/12/18 13:01:16;;;;;;;13.30;11.50;;;;;;;6.50;90.22;100837.70;218839;1254;142058;-69
2023/12/18 13:06:21;;;;;;;19.40;14.50;;;;;;;6.46;90.50;100836.39;219042;1254;140230;-71
2023/12/18 13:11:27;;;;;;;14.30;11.40;;;;;;;6.41;90.05;100838.90;218860;1254;139722;-69
2023/12/18 13:16:31;;;;;;;15.80;10.60;;;;;;;6.34;90.46;100842.46;218482;1254;139892;-69
2023/12/18 13:21:37;;;;;;;17.60;12.20;;;;;;;6.29;90.51;100841.04;218088;1256;139464;-69
2023/12/18 13:26:43;;;;;;;;;;;;;;;6.29;90.81;100837.66;218699;1254;139563;-69
2023/12/18 13:31:48;;;;;;;16.00;12.90;;;;;;;6.25;90.67;100844.35;218941;1254;127936;-69
2023/12/18 13:36:54;;;;;;;21.80;14.10;;;;;;;6.24;90.99;100848.56;219028;1255;140435;-69
2023/12/18 13:42:02;;;;;;;22.10;15.50;;;;;;;6.22;90.62;100848.12;218923;1257;140677;-68
2023/12/18 13:47:07;;;;;;;23.40;15.30;;;;;;;6.21;90.66;100853.52;218565;1254;140215;-69
2023/12/18 13:52:13;;;;;;;17.10;14.20;;;;;;;6.20;90.97;100853.06;219017;1254;139621;-69
2023/12/18 13:57:18;;;;;;;16.20;14.20;;;;;;;6.16;90.60;100856.50;219480;1256;140038;-68
2023/12/18 14:02:23;;;;;;;22.00;13.30;;;;;;;6.15;90.79;100857.86;219692;1253;141418;-70
2023/12/18 14:07:27;;;;;;;21.20;15.30;;;;;;;6.10;90.91;100859.18;220464;1254;140892;-69
2023/12/18 14:12:31;;;;;;;17.10;13.40;;;;;;;6.04;90.91;100859.54;219365;1255;139802;-69
2023/12/18 14:17:40;;;;;;;24.90;17.30;;;;;;;5.99;91.18;100864.89;218386;1254;141085;-68
2023/12/18 14:22:44;;;;;;;18.90;14.10;;;;;;;5.95;91.54;100863.89;219229;1257;140117;-69
2023/12/18 14:27:49;;;;;;;14.50;11.70;;;;;;;5.89;91.58;100860.21;219593;1254;141507;-69
2023/12/18 14:32:54;;;;;;;17.00;13.00;;;;;;;5.86;91.86;100856.48;219704;1255;139887;-69
2023/12/18 14:38:00;;;;;;;20.70;14.80;;;;;;;5.83;92.32;100852.91;218990;1254;139617;-69
2023/12/18 14:43:05;;;;;;;23.80;17.20;;;;;;;5.82;92.39;100851.52;219037;1256;139663;-69
2023/12/18 14:48:12;;;;;;;25.70;19.60;;;;;;;5.80;92.90;100852.31;219120;1253;140101;-68
2023/12/18 14:53:25;;;;;;;23.70;17.30;;;;;;;5.80;93.03;100853.46;218077;1254;139945;-68
2023/12/18 14:58:29;;;;;;;23.90;19.50;;;;;;;5.79;92.99;100847.66;218976;1254;140247;-68
2023/12/18 15:03:34;;;;;;;23.40;17.70;;;;;;;5.76;93.18;100846.06;218571;1257;139788;-69
2023/12/18 15:08:40;;;;;;;26.20;17.70;;;;;;;5.74;93.30;100853.48;218198;1254;140724;-66
2023/12/18 15:13:46;;;;;;;25.00;18.20;;;;;;;5.70;93.49;100855.02;218257;1255;139519;-67
2023/12/18 15:18:52;;;;;;;21.80;18.10;;;;;;;5.65;93.64;100848.27;218075;1254;139796;-68
2023/12/18 15:23:57;;;;;;;29.70;20.00;;;;;;;5.62;93.63;100842.63;219463;1254;139958;-66
2023/12/18 15:29:04;;;;;;;23.90;16.70;;;;;;;5.60;94.04;100843.03;218798;1256;140127;-70
2023/12/18 15:34:20;;;;;;;20.60;15.80;;;;;;;5.59;93.98;100838.41;217887;1259;140305;-68
2023/12/18 15:39:28;;;;;;;;;;;;;;;5.58;94.09;100841.07;219019;1256;140170;-70
2023/12/18 15:44:37;;;;;;;27.20;18.90;;;;;;;5.53;94.20;100833.85;217250;1256;1271066;-69
2023/12/18 15:49:46;;;;;;;27.50;18.20;;;;;;;5.53;94.48;100834.59;219075;1256;140693;-69
2023/12/18 15:54:52;;;;;;;14.40;11.10;;;;;;;5.54;94.62;100837.41;218782;1258;139592;-69
2023/12/18 15:59:57;;;;;;;24.90;17.20;;;;;;;5.52;94.38;100839.73;218667;1254;139635;-69
2023/12/18 16:05:01;;;;;;;24.00;16.30;;;;;;;5.53;94.56;100838.25;219968;1253;139691;-69
2023/12/18 16:10:08;;;;;;;23.70;16.80;;;;;;;5.54;94.46;100830.88;219642;1254;139823;-68
2023/12/18 16:15:12;;;;;;;25.80;17.30;;;;;;;5.55;94.38;100829.91;220180;1256;141136;-67
2023/12/18 16:20:17;;;;;;;20.30;15.90;;;;;;;5.54;94.57;100827.20;219129;1253;139967;-69
2023/12/18 16:25:22;;;;;;;21.80;17.00;;;;;;;5.51;94.26;100826.99;219029;1254;139802;-69
2023/12/18 16:30:27;;;;;;;20.40;16.80;;;;;;;5.50;94.79;100824.51;219515;1255;139678;-71
2023/12/18 16:35:42;;;;;;;19.90;17.50;;;;;;;5.49;94.44;100820.08;217801;1256;139922;-70
2023/12/18 16:40:52;;;;;;;23.00;16.70;;;;;;;5.49;95.14;100824.58;218778;1257;141858;-70
2023/12/18 16:46:09;;;;;;;24.50;17.80;;;;;;;5.46;94.79;100815.44;218934;1256;140072;-74
2023/12/18 16:51:22;;;;;;;23.10;17.60;;;;;;;5.46;95.13;100805.95;218574;1256;139576;-69
2023/12/18 16:56:27;;;;;;;20.10;16.50;;;;;;;5.43;95.02;100802.86;217889;1256;141777;-70
2023/12/18 17:01:37;;;;;;;20.80;14.50;;;;;;;5.44;95.21;100798.80;218779;1253;140418;-72
2023/12/18 17:06:44;;;;;;;22.50;18.80;;;;;;;5.44;95.22;100792.61;218430;1256;139649;-68
2023/12/18 17:11:49;;;;;;;24.10;17.20;;;;;;;5.44;95.81;100783.02;218709;1256;141298;-70
2023/12/18 17:16:54;;;;;;;27.70;19.20;;;;;;;5.44;95.76;100774.07;218525;1259;142680;-67
2023/12/18 17:21:59;;;;;;;29.10;19.00;;;;;;;5.45;95.70;100771.71;218378;1256;141392;-70
2023/12/18 17:27:05;;;;;;;21.70;17.30;;;;;;;5.43;95.85;100764.29;218643;1256;139549;-70
2023/12/18 17:32:40;;;;;;;15.80;10.40;;;;;;;5.42;95.72;100761.26;217779;1253;139983;-71
2023/12/18 17:37:49;;;;;;;24.60;16.50;;;;;;;5.38;96.06;100754.50;218384;1254;140923;-69
2023/12/18 17:42:55;;;;;;;28.50;17.80;;;;;;;5.35;96.25;100751.08;219470;1255;140721;-70
2023/12/18 17:48:03;;;;;;;20.30;16.10;;;;;;;5.34;96.30;100751.19;218561;1256;142080;-69
2023/12/18 17:53:10;;;;;;;29.80;17.90;;;;;;;5.35;96.35;100744.77;218859;1256;140333;-68
2023/12/18 17:58:16;;;;;;;23.00;16.90;;;;;;;5.36;96.22;100740.43;219471;1254;140510;-68
2023/12/18 18:03:21;;;;;;;27.00;17.70;;;;;;;5.36;96.71;100738.65;218840;1255;139856;-70
2023/12/18 18:08:27;;;;;;;17.00;13.50;;;;;;;5.37;96.51;100731.80;218925;1254;140644;-70
2023/12/18 18:13:33;;;;;;;25.20;18.00;;;;;;;5.35;96.39;100722.70;220422;1255;139921;-70
2023/12/18 18:18:38;;;;;;;16.40;13.20;;;;;;;5.36;96.58;100723.71;220581;1255;139987;-70
2023/12/18 18:23:45;;;;;;;19.00;15.40;;;;;;;5.38;96.60;100736.85;220173;1254;139960;-69
2023/12/18 18:28:55;;;;;;;19.70;13.50;;;;;;;5.41;96.69;100738.30;220548;1256;141080;-70
2023/12/18 18:34:03;;;;;;;19.20;13.90;;;;;;;5.45;96.62;100730.60;219672;1254;224715;-69
2023/12/18 18:39:08;;;;;;;21.60;16.40;;;;;;;5.48;96.65;100726.58;217957;1256;140414;-69
2023/12/18 18:44:14;;;;;;;27.50;15.90;;;;;;;5.51;97.17;100717.22;218742;1256;140277;-69
2023/12/18 18:49:19;;;;;;;19.20;15.20;;;;;;;5.54;97.17;100713.67;219132;1256;142073;-68
2023/12/18 18:54:24;;;;;;;22.90;14.40;;;;;;;5.55;96.80;100713.54;219366;1256;140010;-68
2023/12/18 18:59:27;;;;;;;18.70;13.60;;;;;;;5.58;96.85;100709.31;219025;1256;140855;-68
2023/12/18 19:04:32;;;;;;;22.70;15.10;;;;;;;5.59;97.11;100709.54;218068;1257;140698;-68
2023/12/18 19:09:37;;;;;;;21.00;13.20;;;;;;;5.60;96.90;100704.47;217952;1257;141755;-67
2023/12/18 19:14:42;;;;;;;20.80;15.00;;;;;;;5.59;96.87;100701.00;217600;1260;139890;-67
2023/12/18 19:19:47;;;;;;;20.40;15.20;;;;;;;5.59;96.90;100696.80;217771;1259;139923;-67
2023/12/18 19:24:51;;;;;;;17.40;13.40;;;;;;;5.58;97.13;100690.40;218111;1257;139803;-67
2023/12/18 19:29:56;;;;;;;25.60;15.30;;;;;;;5.57;96.77;100677.45;218395;1256;140107;-70
2023/12/18 19:35:01;;;;;;;19.20;13.70;;;;;;;5.57;96.74;100667.64;217607;1255;140065;-70
2023/12/18 19:40:13;;;;;;;19.80;12.90;;;;;;;5.58;96.81;100664.39;218404;1254;140227;-67
2023/12/18 19:45:18;;;;;;;20.40;12.60;;;;;;;5.58;97.02;100654.96;218396;1254;139604;-67
2023/12/18 19:50:24;;;;;;;19.30;12.90;;;;;;;5.57;96.66;100645.02;217722;1256;139832;-68
2023/12/18 19:55:30;;;;;;;17.90;11.10;;;;;;;5.57;96.71;100642.58;219258;1254;139692;-68
2023/12/18 20:00:34;;;;;;;16.80;12.60;;;;;;;5.57;96.51;100629.75;218739;1256;139739;-68
2023/12/18 20:05:44;;;;;;;15.90;11.40;;;;;;;5.58;96.72;100623.55;220573;1258;140779;-68
2023/12/18 20:10:48;;;;;;;18.40;9.70;;;;;;;5.61;96.47;100623.60;219731;1256;140245;-68
2023/12/18 20:15:54;;;;;;;13.10;9.80;;;;;;;5.63;96.28;100620.04;219654;1259;141566;-68
2023/12/18 20:21:00;;;;;;;13.10;9.00;;;;;;;5.63;95.96;100609.71;218736;1256;139394;-67
2023/12/18 20:26:06;;;;;;;18.20;9.30;;;;;;;5.62;95.67;100604.94;219815;1254;143666;-68
2023/12/18 20:31:13;;;;;;;16.80;8.30;;;;;;;5.61;96.04;100607.77;219006;1257;139977;-68
2023/12/18 20:36:20;;;;;;;13.30;9.10;;;;;;;5.60;95.38;100605.23;218111;1257;139810;-67
2023/12/18 20:41:26;;;;;;;14.30;9.30;;;;;;;5.56;95.72;100592.42;219645;1254;140376;-67
2023/12/18 20:46:37;;;;;;;11.80;8.20;;;;;;;5.54;95.15;100588.05;219366;1256;139468;-68
2023/12/18 20:51:42;;;;;;;14.60;8.20;;;;;;;5.53;95.58;100571.17;218052;1258;142077;-68
2023/12/18 20:56:47;;;;;;;13.00;10.00;;;;;;;5.52;95.16;100556.30;218265;1257;139602;-68
2023/12/18 21:01:51;;;;;;;11.80;8.40;;;;;;;5.50;95.00;100545.93;218968;1257;140163;-68
2023/12/18 21:06:57;;;;;;;15.30;9.00;;;;;;;5.49;94.89;100544.90;218361;1256;139408;-67
2023/12/18 21:12:01;;;;;;;14.20;8.50;;;;;;;5.48;95.06;100545.80;219253;1255;140086;-67
2023/12/18 21:17:08;;;;;;;10.20;7.40;;;;;;;5.49;94.74;100554.31;218348;1257;141128;-66
2023/12/18 21:22:12;;;;;;;12.50;8.50;;;;;;;5.48;94.77;100544.44;219076;1254;139622;-67
2023/12/18 21:27:18;;;;;;;11.60;8.00;;;;;;;5.48;94.56;100549.23;218996;1254;139684;-67
2023/12/18 21:32:27;;;;;;;10.90;8.40;;;;;;;5.46;94.58;100548.77;218876;1253;139643;-66
2023/12/18 21:37:31;;;;;;;17.70;9.30;;;;;;;5.41;94.35;100544.31;219163;1255;139559;-68
2023/12/18 21:42:42;;;;;;;10.70;8.00;;;;;;;5.41;94.29;100541.54;219058;1256;140119;-68
2023/12/18 21:47:50;;;;;;;14.60;8.80;;;;;;;5.42;94.22;100532.77;219833;1256;140414;-68
2023/12/18 21:52:55;;;;;;;13.00;8.60;;;;;;;5.42;94.06;100528.90;219753;1253;140129;-69
2023/12/18 21:58:01;;;;;;;14.20;8.60;;;;;;;5.46;94.05;100516.71;220264;1254;139592;-70
2023/12/18 22:03:06;;;;;;;12.80;9.10;;;;;;;5.48;93.38;100502.13;220739;1258;139467;-71
2023/12/18 22:08:13;;;;;;;9.20;5.90;;;;;;;5.52;93.81;100481.38;219459;1257;140299;-71
2023/12/18 22:13:21;;;;;;;14.30;8.30;;;;;;;5.52;93.39;100483.24;220770;1254;140064;-70
2023/12/18 22:18:26;;;;;;;11.50;7.90;;;;;;;5.54;93.24;100478.67;220832;1254;139631;-71
2023/12/18 22:23:31;;;;;;;12.30;8.20;;;;;;;5.53;92.88;100465.88;220850;1257;140188;-71
2023/12/18 22:28:40;;;;;;;14.00;7.30;;;;;;;5.53;92.96;100457.27;218853;1257;139498;-67
2023/12/18 22:33:44;;;;;;;10.40;7.10;;;;;;;5.53;92.49;100450.75;219445;1257;139905;-67
2023/12/18 22:38:49;;;;;;;10.10;7.20;;;;;;;5.48;92.06;100442.05;219253;1257;142144;-68
2023/12/18 22:44:03;;;;;;;15.50;7.30;;;;;;;5.42;92.11;100423.86;219515;1259;140694;-68
2023/12/18 22:49:08;;;;;;;7.90;6.10;;;;;;;5.38;92.33;100415.81;219413;1258;139703;-68
2023/12/18 22:54:13;;;;;;;10.10;6.60;;;;;;;5.39;92.12;100429.33;218768;1254;221458;-67
2023/12/18 22:59:18;;;;;;;6.90;5.20;;;;;;;5.41;92.06;100439.52;218651;1254;139624;-67
2023/12/18 23:04:22;;;;;;;10.10;6.10;;;;;;;5.41;91.98;100441.39;218177;1254;139698;-68
2023/12/18 23:09:26;;;;;;;10.70;6.10;;;;;;;5.41;91.64;100441.30;218645;1258;139871;-67
2023/12/18 23:14:31;;;;;;;9.90;5.10;;;;;;;5.39;91.54;100443.80;217906;1254;139811;-67